createdAt,value
2022-09-09T07:15:58.084Z,9.358599
2022-09-09T07:16:59.782Z,9.358597
2022-09-09T07:17:58.931Z,9.358541
2022-09-09T07:18:57.894Z,9.358515
2022-09-09T07:19:57.999Z,9.358518
2022-09-09T07:20:57.950Z,9.358497
2022-09-09T07:21:57.907Z,9.358533
2022-09-09T07:22:57.874Z,9.358547
2022-09-09T07:23:58.841Z,9.358466
2022-09-09T07:24:57.847Z,9.358495
2022-09-09T07:25:57.888Z,9.358495
2022-09-09T07:26:57.861Z,9.358498
2022-09-09T07:27:57.901Z,9.358498
2022-09-09T07:28:57.789Z,9.358509
2022-09-09T07:29:57.879Z,9.358525
2022-09-09T07:30:57.815Z,9.358500
2022-09-09T07:31:57.913Z,9.358503
2022-09-09T07:32:57.747Z,9.358464
2022-09-09T07:33:57.764Z,9.358475
2022-09-09T07:34:57.856Z,9.358489
2022-09-09T07:35:57.762Z,9.358500
2022-09-09T07:36:57.779Z,9.358601
2022-09-09T07:37:57.838Z,9.358635
2022-09-09T07:38:57.810Z,9.358578
2022-09-09T07:39:58.741Z,9.358541
2022-09-09T07:40:57.685Z,9.358550
2022-09-09T07:41:57.709Z,9.358479
2022-09-09T07:42:57.637Z,9.358470
2022-09-09T07:43:57.746Z,9.358529
2022-09-09T07:44:57.749Z,9.358579
2022-09-09T07:45:58.745Z,9.358550
2022-09-09T07:46:57.699Z,9.358526
2022-09-09T07:47:57.705Z,9.358544
2022-09-09T07:48:57.678Z,9.358566
2022-09-09T07:49:57.696Z,9.358502
2022-09-09T07:50:57.586Z,9.358556
2022-09-09T07:51:57.665Z,9.358581
2022-09-09T07:52:57.721Z,9.358549
2022-09-09T07:53:58.623Z,9.358497
2022-09-09T07:54:57.532Z,9.358500
2022-09-09T07:55:57.512Z,9.358413
2022-09-09T07:56:57.686Z,9.358446
2022-09-09T07:57:57.541Z,9.358503
2022-09-09T07:58:57.842Z,9.358583
2022-09-09T07:59:57.482Z,9.358588
2022-09-09T08:00:57.480Z,9.358584
2022-09-09T08:01:58.023Z,9.358477
2022-09-09T08:02:57.497Z,9.358426
2022-09-09T08:03:57.443Z,9.358443
2022-09-09T08:04:57.414Z,9.358461
2022-09-09T08:05:57.425Z,9.358482
2022-09-09T08:06:57.447Z,9.358477
2022-09-09T08:07:57.443Z,9.358496
2022-09-09T08:08:57.462Z,9.358541
2022-09-09T08:09:57.485Z,9.358471
2022-09-09T08:10:57.364Z,9.358433
2022-09-09T08:11:57.392Z,9.358410
2022-09-09T08:13:16.710Z,9.358435
2022-09-09T08:14:02.349Z,9.358479
2022-09-09T08:14:58.345Z,9.358453
2022-09-09T08:15:57.464Z,9.358509
2022-09-09T08:16:57.446Z,9.358504
2022-09-09T08:17:57.402Z,9.358499
2022-09-09T08:18:57.311Z,9.358497
2022-09-09T08:19:57.290Z,9.358487
2022-09-09T08:20:57.359Z,9.358482
2022-09-09T08:21:57.287Z,9.358478
2022-09-09T08:22:57.350Z,9.358474
2022-09-09T08:23:58.069Z,9.358439
2022-09-09T08:24:58.334Z,9.358430
2022-09-09T08:25:57.775Z,9.358426
2022-09-09T08:26:57.248Z,9.358483
2022-09-09T08:27:57.289Z,9.358537
2022-09-09T08:28:57.189Z,9.358543
2022-09-09T08:29:57.170Z,9.358434
2022-09-09T08:30:57.245Z,9.358492
2022-09-09T08:31:57.236Z,9.358509
2022-09-09T08:32:57.276Z,9.358482
2022-09-09T08:33:57.122Z,9.358479
2022-09-09T08:35:01.129Z,9.358491
2022-09-09T08:35:58.117Z,9.358506
2022-09-09T08:36:57.394Z,9.358502
2022-09-09T08:37:57.169Z,9.358468
2022-09-09T08:38:57.121Z,9.358495
2022-09-09T08:39:57.138Z,9.358593
2022-09-09T08:40:57.051Z,9.358581
2022-09-09T08:41:57.162Z,9.358623
2022-09-09T08:42:57.034Z,9.358606
2022-09-09T08:43:57.011Z,9.358639
2022-09-09T08:44:56.971Z,9.358596
2022-09-09T08:45:57.024Z,9.358596
2022-09-09T08:46:57.124Z,9.358538
2022-09-09T08:47:57.020Z,9.358488
2022-09-09T08:48:57.053Z,9.358500
2022-09-09T08:49:56.966Z,9.358486
2022-09-09T08:50:56.931Z,9.358463
2022-09-09T08:51:56.987Z,9.358499
2022-09-09T08:52:56.920Z,9.358514
2022-09-09T08:53:59.809Z,9.358533
2022-09-09T08:54:57.898Z,9.358479
2022-09-09T08:55:56.991Z,9.358473
2022-09-09T08:56:56.937Z,9.358487
2022-09-09T08:57:57.139Z,9.358511
2022-09-09T08:58:56.909Z,9.358594
2022-09-09T08:59:56.942Z,9.358574
2022-09-09T09:00:56.831Z,9.358513
2022-09-09T09:01:56.883Z,9.358488
2022-09-09T09:02:56.858Z,9.358514
2022-09-09T09:03:56.790Z,9.358524
2022-09-09T09:04:56.942Z,9.358555
2022-09-09T09:05:56.751Z,9.358541
2022-09-09T09:06:56.930Z,9.358639
2022-09-09T09:07:56.754Z,9.358640
2022-09-09T09:08:56.847Z,9.358665
2022-09-09T09:09:56.824Z,9.358624
2022-09-09T09:10:56.680Z,9.358511
2022-09-09T09:11:56.750Z,9.358481
2022-09-09T09:12:56.787Z,9.358518
2022-09-09T09:13:56.793Z,9.358529
2022-09-09T09:14:56.833Z,9.358583
2022-09-09T09:15:57.734Z,9.358523
2022-09-09T09:16:56.773Z,9.358537
2022-09-09T09:17:56.642Z,9.358511
2022-09-09T09:18:56.626Z,9.358536
2022-09-09T09:19:56.645Z,9.358558
2022-09-09T09:20:56.601Z,9.358534
2022-09-09T09:21:56.625Z,9.358543
2022-09-09T09:22:56.687Z,9.358557
2022-09-09T09:23:56.706Z,9.358624
2022-09-09T09:24:56.680Z,9.358530
2022-09-09T09:25:56.666Z,9.358535
2022-09-09T09:26:56.758Z,9.358547
2022-09-09T09:27:56.621Z,9.358493
2022-09-09T09:28:56.543Z,9.358668
2022-09-09T09:30:18.481Z,9.358712
2022-09-09T09:30:58.642Z,9.358656
2022-09-09T09:31:56.627Z,9.358541
2022-09-09T09:32:56.572Z,9.358571
2022-09-09T09:33:56.698Z,9.358514
2022-09-09T09:34:56.506Z,9.358542
2022-09-09T09:35:56.513Z,9.358530
2022-09-09T09:36:56.551Z,9.358520
2022-09-09T09:40:57.437Z,9.358630
2022-09-09T09:41:56.691Z,9.358621
2022-09-09T09:42:56.403Z,9.358570
2022-09-09T09:43:56.382Z,9.358559
2022-09-09T09:44:56.344Z,9.358541
2022-09-09T09:46:16.324Z,9.358526
2022-09-09T09:46:58.661Z,9.358530
2022-09-09T09:48:01.269Z,9.358582
2022-09-09T09:48:58.424Z,9.358651
2022-09-09T09:49:56.295Z,9.358553
2022-09-09T09:50:56.404Z,9.358561
2022-09-09T09:51:56.520Z,9.358625
2022-09-09T09:52:56.327Z,9.358636
2022-09-09T09:53:56.368Z,9.358632
2022-09-09T09:54:56.337Z,9.358582
2022-09-09T09:55:56.325Z,9.358638
2022-09-09T09:56:56.374Z,9.358598
2022-09-09T09:57:56.392Z,9.358560
2022-09-09T09:58:56.230Z,9.358574
2022-09-09T09:59:56.270Z,9.358593
2022-09-09T10:00:56.175Z,9.358561
2022-09-09T10:01:56.371Z,9.358498
2022-09-09T10:02:56.133Z,9.358517
2022-09-09T10:03:56.248Z,9.358558
2022-09-09T10:04:56.336Z,9.358551
2022-09-09T10:05:56.188Z,9.358525
2022-09-09T10:06:56.232Z,9.358578
2022-09-09T10:07:56.118Z,9.358567
2022-09-09T10:08:56.253Z,9.358594
2022-09-09T10:09:56.161Z,9.358517
2022-09-09T10:10:56.186Z,9.358516
2022-09-09T10:11:56.098Z,9.358568
2022-09-09T10:12:56.040Z,9.358581
2022-09-09T10:13:56.030Z,9.358573
2022-09-09T10:14:56.070Z,9.358533
2022-09-09T10:15:56.133Z,9.358562
2022-09-09T10:16:56.071Z,9.358557
2022-09-09T10:17:56.231Z,9.358564
2022-09-09T10:18:56.016Z,9.358576
2022-09-09T10:19:56.038Z,9.358555
2022-09-09T10:20:56.051Z,9.358552
2022-09-09T10:21:56.084Z,9.358541
2022-09-09T10:22:56.040Z,9.358530
2022-09-09T10:23:56.061Z,9.358545
2022-09-09T10:24:56.025Z,9.358602
2022-09-09T10:25:55.950Z,9.358669
2022-09-09T10:26:56.028Z,9.358709
2022-09-09T10:27:59.729Z,9.358603
2022-09-09T10:28:56.986Z,9.358616
2022-09-09T10:29:55.949Z,9.358605
2022-09-09T10:30:56.002Z,9.358583
2022-09-09T10:31:55.900Z,9.358563
2022-09-09T10:32:55.842Z,9.358547
2022-09-09T10:33:55.930Z,9.358583
2022-09-09T10:34:55.833Z,9.358600
2022-09-09T10:35:55.855Z,9.358568
2022-09-09T10:36:55.926Z,9.358532
2022-09-09T10:37:55.894Z,9.358466
2022-09-09T10:38:55.803Z,9.358533
2022-09-09T10:39:55.814Z,9.358602
2022-09-09T10:40:55.835Z,9.358536
2022-09-09T10:41:55.988Z,9.358591
2022-09-09T10:42:55.821Z,9.358558
2022-09-09T10:44:00.131Z,9.358488
2022-09-09T10:44:56.827Z,9.358452
2022-09-09T10:45:55.798Z,9.358419
2022-09-09T10:46:55.811Z,9.358504
2022-09-09T10:47:55.797Z,9.358583
2022-09-09T10:48:55.734Z,9.358530
2022-09-09T10:49:55.671Z,9.358494
2022-09-09T10:51:04.901Z,9.358508
2022-09-09T10:51:57.813Z,9.358548
2022-09-09T10:52:55.688Z,9.358519
2022-09-09T10:53:55.749Z,9.358582
2022-09-09T10:54:55.609Z,9.358565
2022-09-09T10:55:55.610Z,9.358550
2022-09-09T10:56:55.696Z,9.358570
2022-09-09T10:57:55.685Z,9.358578
2022-09-09T10:58:55.666Z,9.358541
2022-09-09T10:59:55.582Z,9.358486
2022-09-09T11:00:58.189Z,9.358502
2022-09-09T11:01:56.646Z,9.358504
2022-09-09T11:02:55.611Z,9.358521
2022-09-09T11:03:55.624Z,9.358513
2022-09-09T11:04:55.496Z,9.358525
2022-09-09T11:05:55.637Z,9.358553
2022-09-09T11:06:55.551Z,9.358558
2022-09-09T11:07:55.590Z,9.358512
2022-09-09T11:08:57.070Z,9.358550
2022-09-09T11:09:55.543Z,9.358536
2022-09-09T11:10:55.462Z,9.358530
2022-09-09T11:11:55.819Z,9.358450
2022-09-09T11:12:55.495Z,9.358414
2022-09-09T11:13:55.468Z,9.358470
2022-09-09T11:14:55.594Z,9.358483
2022-09-09T11:15:56.383Z,9.358541
2022-09-09T11:16:55.498Z,9.358532
2022-09-09T11:17:55.396Z,9.358516
2022-09-09T11:18:55.376Z,9.358540
2022-09-09T11:19:55.466Z,9.358542
2022-09-09T11:20:55.416Z,9.358528
2022-09-09T11:21:55.333Z,9.358516
2022-09-09T11:22:55.462Z,9.358490
2022-09-09T11:23:55.350Z,9.358499
2022-09-09T11:24:55.363Z,9.358521
2022-09-09T11:25:56.332Z,9.358522
2022-09-09T11:26:55.346Z,9.358523
2022-09-09T11:27:55.461Z,9.358520
2022-09-09T11:28:55.366Z,9.358497
2022-09-09T11:29:55.379Z,9.358531
2022-09-09T11:30:57.046Z,9.358579
2022-09-09T11:31:56.335Z,9.358571
2022-09-09T11:32:55.553Z,9.358505
2022-09-09T11:33:55.285Z,9.358522
2022-09-09T11:34:55.321Z,9.358500
2022-09-09T11:35:55.267Z,9.358508
2022-09-09T11:36:55.281Z,9.358499
2022-09-09T11:37:55.301Z,9.358550
2022-09-09T11:38:55.287Z,9.358481
2022-09-09T11:39:55.203Z,9.358488
2022-09-09T11:40:55.153Z,9.358568
2022-09-09T11:41:55.180Z,9.358562
2022-09-09T11:42:55.207Z,9.358515
2022-09-09T11:43:55.174Z,9.358515
2022-09-09T11:44:55.076Z,9.358569
2022-09-09T11:45:58.715Z,9.358521
2022-09-09T11:46:57.081Z,9.358470
2022-09-09T11:47:55.101Z,9.358470
2022-09-09T11:48:55.081Z,9.358450
2022-09-09T11:49:55.070Z,9.358465
2022-09-09T11:50:55.123Z,9.358460
2022-09-09T11:51:55.015Z,9.358466
2022-09-09T11:52:55.030Z,9.358465
2022-09-09T11:53:55.099Z,9.358441
2022-09-09T11:54:55.056Z,9.358465
2022-09-09T11:55:55.062Z,9.358479
2022-09-09T11:56:54.959Z,9.358473
2022-09-09T11:57:55.140Z,9.358471
2022-09-09T11:58:55.023Z,9.358476
2022-09-09T11:59:54.984Z,9.358472
2022-09-09T12:00:55.005Z,9.358473
2022-09-09T12:01:55.021Z,9.358499
2022-09-09T12:02:54.935Z,9.358511
2022-09-09T12:03:55.099Z,9.358479
2022-09-09T12:04:54.881Z,9.358491
2022-09-09T12:05:54.856Z,9.358538
2022-09-09T12:06:54.841Z,9.358568
2022-09-09T12:07:54.963Z,9.358521
2022-09-09T12:08:55.068Z,9.358523
2022-09-09T12:09:54.887Z,9.358568
2022-09-09T12:10:54.924Z,9.358562
2022-09-09T12:11:54.834Z,9.358546
2022-09-09T12:12:54.942Z,9.358580
2022-09-09T12:13:54.870Z,9.358620
2022-09-09T12:14:54.824Z,9.358676
2022-09-09T12:15:54.877Z,9.358684
2022-09-09T12:16:54.987Z,9.358655
2022-09-09T12:17:55.453Z,9.358679
2022-09-09T12:19:54.745Z,9.358555
2022-09-09T12:20:55.093Z,9.358549
2022-09-09T12:21:54.829Z,9.358505
2022-09-09T12:22:54.790Z,9.358443
2022-09-09T12:23:54.724Z,9.358433
2022-09-09T12:24:54.717Z,9.358507
2022-09-09T12:25:54.735Z,9.358540
2022-09-09T12:26:54.783Z,9.358603
2022-09-09T12:27:54.714Z,9.358542
2022-09-09T12:28:54.696Z,9.358475
2022-09-09T12:29:54.650Z,9.358516
2022-09-09T12:30:54.713Z,9.358540
2022-09-09T12:31:54.620Z,9.358500
2022-09-09T12:32:54.569Z,9.358518
2022-09-09T12:33:54.571Z,9.358502
2022-09-09T12:34:54.639Z,9.358516
2022-09-09T12:35:54.817Z,9.358508
2022-09-09T12:36:54.885Z,9.358533
2022-09-09T12:37:54.670Z,9.358545
2022-09-09T12:38:54.584Z,9.358535
2022-09-09T12:39:54.665Z,9.358549
2022-09-09T12:40:54.552Z,9.358522
2022-09-09T12:41:54.671Z,9.358509
2022-09-09T12:42:54.514Z,9.358501
2022-09-09T12:43:54.518Z,9.358498
2022-09-09T12:44:54.460Z,9.358434
2022-09-09T12:45:54.596Z,9.358488
2022-09-09T12:46:54.485Z,9.358481
2022-09-09T12:47:54.486Z,9.358491
2022-09-09T12:48:54.472Z,9.358517
2022-09-09T12:49:54.347Z,9.358468
2022-09-09T12:50:54.433Z,9.358509
2022-09-09T12:51:54.535Z,9.358514
2022-09-09T12:52:54.355Z,9.358508
2022-09-09T12:53:54.429Z,9.358600
2022-09-09T12:54:54.450Z,9.358560
2022-09-09T12:55:54.342Z,9.358553
2022-09-09T12:56:54.313Z,9.358506
2022-09-09T12:57:54.822Z,9.358473
2022-09-09T12:58:54.370Z,9.358497
2022-09-09T12:59:54.306Z,9.358467
2022-09-09T13:00:54.415Z,9.358500
2022-09-09T13:01:54.433Z,9.358515
2022-09-09T13:02:54.514Z,9.358480
2022-09-09T13:03:54.238Z,9.358479
2022-09-09T13:04:54.335Z,9.358502
2022-09-09T13:05:54.209Z,9.358524
2022-09-09T13:06:54.317Z,9.358516
2022-09-09T13:07:54.744Z,9.358458
2022-09-09T13:08:54.296Z,9.358439
2022-09-09T13:09:54.161Z,9.358446
2022-09-09T13:10:57.439Z,9.358521
2022-09-09T13:11:56.551Z,9.358551
2022-09-09T13:12:54.287Z,9.358624
2022-09-09T13:13:54.137Z,9.358583
2022-09-09T13:14:54.222Z,9.358488
2022-09-09T13:15:54.131Z,9.358481
2022-09-09T13:16:54.141Z,9.358494
2022-09-09T13:17:54.132Z,9.358487
2022-09-09T13:18:54.067Z,9.358441
2022-09-09T13:19:54.144Z,9.358479
2022-09-09T13:20:54.146Z,9.358519
2022-09-09T13:21:54.064Z,9.358540
2022-09-09T13:22:54.050Z,9.358502
2022-09-09T13:23:54.032Z,9.358412
2022-09-09T13:24:54.042Z,9.358478
2022-09-09T13:25:54.112Z,9.358582
2022-09-09T13:26:54.033Z,9.358579
2022-09-09T13:27:54.001Z,9.358591
2022-09-09T13:28:53.954Z,9.358529
2022-09-09T13:29:53.985Z,9.358504
2022-09-09T13:30:53.973Z,9.358496
2022-09-09T13:31:53.936Z,9.358489
2022-09-09T13:32:54.080Z,9.358554
2022-09-09T13:33:54.021Z,9.358573
2022-09-09T13:34:53.999Z,9.358536
2022-09-09T13:35:54.025Z,9.358589
2022-09-09T13:36:57.951Z,9.358606
2022-09-09T13:37:56.016Z,9.358517
2022-09-09T13:38:53.990Z,9.358498
2022-09-09T13:39:54.027Z,9.358503
2022-09-09T13:40:53.975Z,9.358571
2022-09-09T13:41:53.966Z,9.358545
2022-09-09T13:42:53.942Z,9.358484
2022-09-09T13:43:53.859Z,9.358430
2022-09-09T13:44:53.866Z,9.358399
2022-09-09T13:45:53.830Z,9.358520
2022-09-09T13:46:53.918Z,9.358594
2022-09-09T13:47:54.336Z,9.358541
2022-09-09T13:48:53.761Z,9.358492
2022-09-09T13:49:53.797Z,9.358519
2022-09-09T13:50:53.835Z,9.358569
2022-09-09T13:51:53.756Z,9.358674
2022-09-09T13:52:53.848Z,9.358636
2022-09-09T13:53:53.816Z,9.358581
2022-09-09T13:54:53.688Z,9.358543
2022-09-09T13:55:53.802Z,9.358528
2022-09-09T13:56:54.720Z,9.358455
2022-09-09T13:57:53.825Z,9.358397
2022-09-09T13:58:53.720Z,9.358466
2022-09-09T14:00:04.559Z,9.358459
2022-09-09T14:00:55.683Z,9.358459
2022-09-09T14:01:54.071Z,9.358479
2022-09-09T14:02:53.699Z,9.358525
2022-09-09T14:03:53.689Z,9.358516
2022-09-09T14:04:53.643Z,9.358524
2022-09-09T14:05:53.669Z,9.358571
2022-09-09T14:06:53.727Z,9.358580
2022-09-09T14:07:53.585Z,9.358577
2022-09-09T14:08:53.652Z,9.358559
2022-09-09T14:09:53.641Z,9.358524
2022-09-09T14:10:53.657Z,9.358455
2022-09-09T14:11:53.581Z,9.358492
2022-09-09T14:12:53.643Z,9.358519
2022-09-09T14:13:53.548Z,9.358520
2022-09-09T14:14:53.588Z,9.358506
2022-09-09T14:15:53.737Z,9.358461
2022-09-09T14:16:53.632Z,9.358539
2022-09-09T14:17:53.591Z,9.358534
2022-09-09T14:18:53.530Z,9.358533
2022-09-09T14:19:53.507Z,9.358505
2022-09-09T14:20:53.537Z,9.358492
2022-09-09T14:21:53.474Z,9.358470
2022-09-09T14:22:53.393Z,9.358544
2022-09-09T14:23:53.552Z,9.358562
2022-09-09T14:24:53.687Z,9.358557
2022-09-09T14:25:53.455Z,9.358543
2022-09-09T14:26:53.408Z,9.358584
2022-09-09T14:27:53.469Z,9.358588
2022-09-09T14:28:55.729Z,9.358564
2022-09-09T14:29:54.421Z,9.358611
2022-09-09T14:30:53.406Z,9.358550
2022-09-09T14:31:53.433Z,9.358505
2022-09-09T14:32:53.610Z,9.358534
2022-09-09T14:33:53.404Z,9.358590
2022-09-09T14:34:53.315Z,9.358561
2022-09-09T14:35:53.260Z,9.358523
2022-09-09T14:36:53.390Z,9.358520
2022-09-09T14:37:53.315Z,9.358490
2022-09-09T14:38:53.263Z,9.358494
2022-09-09T14:39:53.363Z,9.358530
2022-09-09T14:40:53.258Z,9.358541
2022-09-09T14:41:53.439Z,9.358541
2022-09-09T14:42:53.408Z,9.358528
2022-09-09T14:43:53.286Z,9.358479
2022-09-09T14:44:53.210Z,9.358485
2022-09-09T14:45:53.316Z,9.358460
2022-09-09T14:46:53.424Z,9.358480
2022-09-09T14:47:53.246Z,9.358471
2022-09-09T14:49:53.208Z,9.358511
2022-09-09T14:50:53.190Z,9.358500
2022-09-09T14:51:53.207Z,9.358536
2022-09-09T14:52:53.269Z,9.358468
2022-09-09T14:53:53.123Z,9.358417
2022-09-09T14:54:53.189Z,9.358450
2022-09-09T14:55:53.196Z,9.358453
2022-09-09T14:56:53.086Z,9.358499
2022-09-09T14:57:53.357Z,9.358562
2022-09-09T14:58:53.163Z,9.358586
2022-09-09T14:59:53.139Z,9.358567
2022-09-09T15:00:53.110Z,9.358535
2022-09-09T15:01:53.233Z,9.358507
2022-09-09T15:02:53.299Z,9.358521
2022-09-09T15:03:53.129Z,9.358546
2022-09-09T15:04:53.070Z,9.358543
2022-09-09T15:05:53.039Z,9.358546
2022-09-09T15:06:53.066Z,9.358570
2022-09-09T15:07:53.108Z,9.358556
2022-09-09T15:08:53.017Z,9.358551
2022-09-09T15:09:53.121Z,9.358582
2022-09-09T15:10:53.008Z,9.358577
2022-09-09T15:11:52.986Z,9.358576
2022-09-09T15:12:53.033Z,9.358555
2022-09-09T15:13:52.900Z,9.358577
2022-09-09T15:14:52.981Z,9.358581
2022-09-09T15:15:52.853Z,9.358632
2022-09-09T15:16:53.063Z,9.358603
2022-09-09T15:17:52.961Z,9.358521
2022-09-09T15:18:52.958Z,9.358500
2022-09-09T15:19:52.971Z,9.358460
2022-09-09T15:20:52.874Z,9.358467
2022-09-09T15:21:53.009Z,9.358546
2022-09-09T15:22:52.830Z,9.358621
2022-09-09T15:23:52.893Z,9.358685
2022-09-09T15:24:52.882Z,9.358715
2022-09-09T15:25:52.894Z,9.358660
2022-09-09T15:26:52.826Z,9.358553
2022-09-09T15:27:52.797Z,9.358575
2022-09-09T15:28:52.751Z,9.358596
2022-09-09T15:29:52.867Z,9.358546
2022-09-09T15:30:52.926Z,9.358513
2022-09-09T15:31:52.914Z,9.358509
2022-09-09T15:32:52.844Z,9.358512
2022-09-09T15:33:52.817Z,9.358491
2022-09-09T15:34:52.710Z,9.358491
2022-09-09T15:35:52.746Z,9.358504
2022-09-09T15:36:52.816Z,9.358502
2022-09-09T15:37:52.668Z,9.358569
2022-09-09T15:38:52.769Z,9.358561
2022-09-09T15:39:52.786Z,9.358543
2022-09-09T15:40:53.345Z,9.358615
2022-09-09T15:41:53.169Z,9.358611
2022-09-09T15:42:52.615Z,9.358571
2022-09-09T15:43:52.578Z,9.358561
2022-09-09T15:44:52.676Z,9.358572
2022-09-09T15:45:52.737Z,9.358604
2022-09-09T15:46:52.756Z,9.358593
2022-09-09T15:47:52.628Z,9.358591
2022-09-09T15:48:54.357Z,9.358614
2022-09-09T15:49:52.535Z,9.358596
2022-09-09T15:50:52.584Z,9.358569
2022-09-09T15:51:52.569Z,9.358548
2022-09-09T15:52:52.520Z,9.358539
2022-09-09T15:53:52.582Z,9.358514
2022-09-09T15:54:52.580Z,9.358536
2022-09-09T15:55:54.759Z,9.358549
2022-09-09T15:56:53.501Z,9.358563
2022-09-09T15:57:52.516Z,9.358639
2022-09-09T15:58:52.562Z,9.358684
2022-09-09T15:59:52.441Z,9.358606
2022-09-09T16:00:52.507Z,9.358552
2022-09-09T16:01:52.619Z,9.358578
2022-09-09T16:02:52.456Z,9.358549
2022-09-09T16:03:52.527Z,9.358639
2022-09-09T16:04:52.476Z,9.358680
2022-09-09T16:05:52.358Z,9.358565
2022-09-09T16:06:52.770Z,9.358591
2022-09-09T16:07:52.361Z,9.358709
2022-09-09T16:08:52.631Z,9.358601
2022-09-09T16:09:52.407Z,9.358483
2022-09-09T16:10:52.411Z,9.358516
2022-09-09T16:11:52.464Z,9.358517
2022-09-09T16:12:52.384Z,9.358534
2022-09-09T16:13:52.297Z,9.358555
2022-09-09T16:14:52.432Z,9.358574
2022-09-09T16:15:52.357Z,9.358566
2022-09-09T16:16:52.304Z,9.358574
2022-09-09T16:17:52.296Z,9.358506
2022-09-09T16:18:52.256Z,9.358475
2022-09-09T16:19:52.219Z,9.358501
2022-09-09T16:20:52.317Z,9.358490
2022-09-09T16:21:52.543Z,9.358545
2022-09-09T16:22:52.291Z,9.358560
2022-09-09T16:23:52.195Z,9.358485
2022-09-09T16:24:52.268Z,9.358430
2022-09-09T16:25:52.161Z,9.358444
2022-09-09T16:26:52.202Z,9.358506
2022-09-09T16:27:52.177Z,9.358561
2022-09-09T16:28:52.194Z,9.358567
2022-09-09T16:29:52.131Z,9.358579
2022-09-09T16:30:52.197Z,9.358547
2022-09-09T16:31:52.174Z,9.358498
2022-09-09T16:32:52.120Z,9.358504
2022-09-09T16:33:52.101Z,9.358520
2022-09-09T16:34:52.081Z,9.358565
2022-09-09T16:35:52.208Z,9.358578
2022-09-09T16:36:52.094Z,9.358572
2022-09-09T16:37:52.048Z,9.358549
2022-09-09T16:38:52.050Z,9.358573
2022-09-09T16:39:52.152Z,9.358593
2022-09-09T16:40:52.041Z,9.358565
2022-09-09T16:41:52.028Z,9.358564
2022-09-09T16:42:52.086Z,9.358553
2022-09-09T16:43:51.972Z,9.358542
2022-09-09T16:44:52.027Z,9.358544
2022-09-09T16:45:52.105Z,9.358572
2022-09-09T16:46:54.500Z,9.358599
2022-09-09T16:47:52.959Z,9.358605
2022-09-09T16:48:52.002Z,9.358575
2022-09-09T16:49:51.962Z,9.358546
2022-09-09T16:50:51.979Z,9.358504
2022-09-09T16:51:51.968Z,9.358496
2022-09-09T16:52:51.889Z,9.358476
2022-09-09T16:53:51.901Z,9.358488
2022-09-09T16:54:51.901Z,9.358496
2022-09-09T16:55:51.863Z,9.358515
2022-09-09T16:56:51.894Z,9.358499
2022-09-09T16:57:51.850Z,9.358402
2022-09-09T16:58:51.981Z,9.358422
2022-09-09T16:59:51.855Z,9.358442
2022-09-09T17:00:51.805Z,9.358462
2022-09-09T17:01:51.878Z,9.358518
2022-09-09T17:02:51.898Z,9.358482
2022-09-09T17:03:51.760Z,9.358489
2022-09-09T17:04:51.828Z,9.358540
2022-09-09T17:05:51.783Z,9.358554
2022-09-09T17:06:51.872Z,9.358626
2022-09-09T17:07:51.834Z,9.358523
2022-09-09T17:08:51.737Z,9.358480
2022-09-09T17:09:51.788Z,9.358491
2022-09-09T17:10:51.698Z,9.358552
2022-09-09T17:11:51.766Z,9.358645
2022-09-09T17:12:51.704Z,9.358643
2022-09-09T17:13:51.669Z,9.358595
2022-09-09T17:14:51.779Z,9.358620
2022-09-09T17:15:51.717Z,9.358556
2022-09-09T17:16:51.673Z,9.358541
2022-09-09T17:17:51.705Z,9.358557
2022-09-09T17:18:51.606Z,9.358596
2022-09-09T17:19:51.637Z,9.358666
2022-09-09T17:20:51.711Z,9.358690
2022-09-09T17:22:16.815Z,9.358609
2022-09-09T17:22:53.606Z,9.358561
2022-09-09T17:23:51.539Z,9.358574
2022-09-09T17:24:51.546Z,9.358645
2022-09-09T17:25:51.585Z,9.358611
2022-09-09T17:26:51.565Z,9.358547
2022-09-09T17:27:51.650Z,9.358506
2022-09-09T17:28:54.105Z,9.358531
2022-09-09T17:29:51.542Z,9.358530
2022-09-09T17:30:51.528Z,9.358518
2022-09-09T17:31:51.508Z,9.358537
2022-09-09T17:32:51.432Z,9.358559
2022-09-09T17:33:51.484Z,9.358571
2022-09-09T17:34:51.455Z,9.358562
2022-09-09T17:35:51.479Z,9.358567
2022-09-09T17:36:51.503Z,9.358598
2022-09-09T17:37:51.426Z,9.358556
2022-09-09T17:38:51.418Z,9.358515
2022-09-09T17:39:51.441Z,9.358514
2022-09-09T17:40:51.416Z,9.358549
2022-09-09T17:41:51.429Z,9.358547
2022-09-09T17:42:51.459Z,9.358596
2022-09-09T17:43:51.364Z,9.358586
2022-09-09T17:44:51.313Z,9.358623
2022-09-09T17:45:51.352Z,9.358659
2022-09-09T17:46:51.745Z,9.358610
2022-09-09T17:47:51.385Z,9.358560
2022-09-09T17:48:51.293Z,9.358563
2022-09-09T17:49:51.271Z,9.358590
2022-09-09T17:50:51.368Z,9.358678
2022-09-09T17:51:51.325Z,9.358641
2022-09-09T17:52:51.213Z,9.358601
2022-09-09T17:53:51.262Z,9.358558
2022-09-09T17:54:51.271Z,9.358521
2022-09-09T17:55:53.084Z,9.358617
2022-09-09T17:56:52.243Z,9.358581
2022-09-09T17:57:51.193Z,9.358629
2022-09-09T17:58:51.195Z,9.358596
2022-09-09T17:59:51.253Z,9.358645
2022-09-09T18:00:51.270Z,9.358670
2022-09-09T18:01:51.358Z,9.358645
2022-09-09T18:02:51.188Z,9.358563
2022-09-09T18:03:51.227Z,9.358593
2022-09-09T18:04:51.164Z,9.358656
2022-09-09T18:05:51.113Z,9.358644
2022-09-09T18:06:51.185Z,9.358596
2022-09-09T18:07:51.203Z,9.358625
2022-09-09T18:08:51.059Z,9.358611
2022-09-09T18:09:51.057Z,9.358622
2022-09-09T18:10:51.063Z,9.358629
2022-09-09T18:11:51.099Z,9.358635
2022-09-09T18:12:51.058Z,9.358627
2022-09-09T18:13:51.055Z,9.358646
2022-09-09T18:14:51.054Z,9.358673
2022-09-09T18:15:51.035Z,9.358649
2022-09-09T18:16:51.051Z,9.358628
2022-09-09T18:17:50.970Z,9.358620
2022-09-09T18:18:51.009Z,9.358664
2022-09-09T18:19:50.963Z,9.358651
2022-09-09T18:20:50.991Z,9.358631
2022-09-09T18:21:51.063Z,9.358622
2022-09-09T18:22:50.928Z,9.358657
2022-09-09T18:23:50.942Z,9.358620
2022-09-09T18:24:50.899Z,9.358625
2022-09-09T18:25:50.914Z,9.358586
2022-09-09T18:26:50.918Z,9.358572
2022-09-09T18:27:50.896Z,9.358577
2022-09-09T18:28:50.882Z,9.358555
2022-09-09T18:29:50.900Z,9.358535
2022-09-09T18:30:51.880Z,9.358569
2022-09-09T18:31:50.864Z,9.358520
2022-09-09T18:32:50.847Z,9.358555
2022-09-09T18:33:50.824Z,9.358542
2022-09-09T18:34:55.378Z,9.358603
2022-09-09T18:35:51.818Z,9.358683
2022-09-09T18:36:50.861Z,9.358682
2022-09-09T18:37:50.847Z,9.358640
2022-09-09T18:38:50.782Z,9.358590
2022-09-09T18:39:50.787Z,9.358591
2022-09-09T18:40:50.735Z,9.358581
2022-09-09T18:41:50.744Z,9.358534
2022-09-09T18:42:50.758Z,9.358464
2022-09-09T18:43:50.691Z,9.358535
2022-09-09T18:44:50.703Z,9.358546
2022-09-09T18:45:50.704Z,9.358598
2022-09-09T18:46:50.759Z,9.358616
2022-09-09T18:47:50.669Z,9.358577
2022-09-09T18:48:50.662Z,9.358566
2022-09-09T18:49:50.632Z,9.358584
2022-09-09T18:50:50.646Z,9.358551
2022-09-09T18:51:50.671Z,9.358484
2022-09-09T18:52:50.599Z,9.358463
2022-09-09T18:53:50.592Z,9.358490
2022-09-09T18:54:50.571Z,9.358558
2022-09-09T18:55:50.610Z,9.358577
2022-09-09T18:56:50.603Z,9.358564
2022-09-09T18:57:50.571Z,9.358506
2022-09-09T18:58:50.590Z,9.358550
2022-09-09T18:59:50.549Z,9.358540
2022-09-09T19:00:50.597Z,9.358567
2022-09-09T19:01:50.675Z,9.358554
2022-09-09T19:02:50.491Z,9.358526
2022-09-09T19:03:50.508Z,9.358556
2022-09-09T19:04:50.494Z,9.358530